createdAt,value
2023-03-15T00:00:10.437Z,0.20
2023-03-15T00:05:15.576Z,0.32
2023-03-15T00:10:17.734Z,0.20
2023-03-15T00:15:19.485Z,0.32
2023-03-15T00:20:21.709Z,0.40
2023-03-15T00:25:23.728Z,0.30
2023-03-15T00:30:25.888Z,0.30
2023-03-15T00:35:28.525Z,0.20
2023-03-15T00:40:30.322Z,0.55
2023-03-15T00:45:33.142Z,0.43
2023-03-15T00:50:35.164Z,1.02
2023-03-15T00:55:37.252Z,0.60
2023-03-15T01:00:39.132Z,0.60
2023-03-15T01:05:41.462Z,0.77
2023-03-15T01:10:43.334Z,0.63
2023-03-15T01:15:47.942Z,0.85
2023-03-15T01:20:50.044Z,1.20
2023-03-15T01:25:51.875Z,0.98
2023-03-15T01:30:54.121Z,0.98
2023-03-15T01:36:04.302Z,0.95
2023-03-15T01:41:06.503Z,1.08
2023-03-15T01:46:35.033Z,1.42
2023-03-15T01:51:44.566Z,1.30
2023-03-15T01:56:53.073Z,1.08
2023-03-15T02:01:56.416Z,1.30
2023-03-15T02:07:02.138Z,1.40
2023-03-15T02:12:05.228Z,1.45
2023-03-15T02:17:07.297Z,1.70
2023-03-15T02:22:36.686Z,1.98
2023-03-15T02:27:39.794Z,2.28
2023-03-15T02:32:41.862Z,3.25
2023-03-15T02:37:46.017Z,2.97
2023-03-15T02:42:52.205Z,3.58
2023-03-15T02:47:54.717Z,3.25
2023-03-15T02:52:56.717Z,3.85
2023-03-15T02:57:59.616Z,3.42
2023-03-15T03:03:01.454Z,4.07
2023-03-15T03:08:03.506Z,4.10
2023-03-15T03:13:05.227Z,4.28
2023-03-15T03:18:07.683Z,4.22
2023-03-15T03:23:09.542Z,3.55
2023-03-15T03:28:11.772Z,3.63
2023-03-15T03:33:14.265Z,3.78
2023-03-15T03:38:17.423Z,3.30
2023-03-15T03:43:19.073Z,4.30
2023-03-15T03:48:20.909Z,4.78
2023-03-15T03:53:23.094Z,3.63
2023-03-15T03:58:25.446Z,4.00
2023-03-15T04:03:28.110Z,3.97
2023-03-15T04:08:29.898Z,4.00
2023-03-15T04:13:31.949Z,3.95
2023-03-15T04:18:34.049Z,4.18
2023-03-15T04:23:36.097Z,3.88
2023-03-15T04:28:38.199Z,3.78
2023-03-15T04:33:42.822Z,3.15
2023-03-15T04:38:48.057Z,7.28
2023-03-15T04:43:50.030Z,3.83
2023-03-15T04:48:52.004Z,4.35
2023-03-15T04:53:53.782Z,3.33
2023-03-15T04:58:55.773Z,3.58
2023-03-15T05:04:00.766Z,3.30
2023-03-15T05:09:04.070Z,3.65
2023-03-15T05:14:05.861Z,4.00
2023-03-15T05:19:11.307Z,3.38
2023-03-15T05:24:14.736Z,3.45
2023-03-15T05:29:17.219Z,2.90
2023-03-15T05:34:20.075Z,3.70
2023-03-15T05:39:23.173Z,3.95
2023-03-15T05:44:25.215Z,5.18
2023-03-15T05:49:27.089Z,4.30
2023-03-15T05:54:28.867Z,4.30
2023-03-15T05:59:31.416Z,3.65
2023-03-15T06:04:33.446Z,3.22
2023-03-15T06:09:35.314Z,3.78
2023-03-15T06:14:37.354Z,3.50
2023-03-15T06:19:39.098Z,3.83
2023-03-15T06:24:41.540Z,3.53
2023-03-15T06:29:43.529Z,6.82
2023-03-15T06:34:45.239Z,4.55
2023-03-15T06:39:47.306Z,5.35
2023-03-15T06:44:51.161Z,5.90
2023-03-15T06:49:54.438Z,4.10
2023-03-15T06:54:56.340Z,4.25
2023-03-15T06:59:58.154Z,3.70
2023-03-15T07:04:59.881Z,3.80
2023-03-15T07:10:02.089Z,3.80
2023-03-15T07:15:04.669Z,3.58
2023-03-15T07:20:07.441Z,2.80
2023-03-15T07:25:12.253Z,2.65
2023-03-15T07:30:14.511Z,2.60
2023-03-15T07:35:18.268Z,2.33
2023-03-15T07:40:20.526Z,2.83
2023-03-15T07:45:27.021Z,2.63
2023-03-15T07:50:29.735Z,7.68
2023-03-15T07:55:35.791Z,2.08
2023-03-15T08:00:37.544Z,1.80
2023-03-15T08:05:40.300Z,1.98
2023-03-15T08:10:43.624Z,2.67
2023-03-15T08:15:47.333Z,1.60
2023-03-15T08:20:49.298Z,1.80
2023-03-15T08:25:51.178Z,2.30
2023-03-15T08:30:53.244Z,2.47
2023-03-15T08:35:55.314Z,2.50
2023-03-15T08:40:57.872Z,1.90
2023-03-15T08:46:01.491Z,2.35
2023-03-15T08:51:05.792Z,2.10
2023-03-15T08:56:07.770Z,2.42
2023-03-15T09:01:12.303Z,1.95
2023-03-15T09:06:14.448Z,2.72
2023-03-15T09:11:16.299Z,7.78
2023-03-15T09:16:18.395Z,2.17
2023-03-15T09:21:20.979Z,1.60
2023-03-15T09:26:23.201Z,1.63
2023-03-15T09:31:25.196Z,1.92
2023-03-15T09:36:27.124Z,1.35
2023-03-15T09:41:43.343Z,1.52
2023-03-15T09:46:53.459Z,1.67
2023-03-15T09:52:00.750Z,2.10
2023-03-15T09:57:14.965Z,1.15
2023-03-15T10:02:29.760Z,1.15
2023-03-15T10:07:32.844Z,2.95
2023-03-15T10:12:41.702Z,1.60
2023-03-15T10:17:58.454Z,1.77
2023-03-15T10:23:08.011Z,0.90
2023-03-15T10:28:31.302Z,1.42
2023-03-15T10:33:38.431Z,1.95
2023-03-15T10:38:41.850Z,2.97
2023-03-15T10:44:04.352Z,1.23
2023-03-15T10:49:12.106Z,1.38
2023-03-15T10:54:13.881Z,1.63
2023-03-15T10:59:19.025Z,1.55
2023-03-15T11:04:34.205Z,1.08
2023-03-15T11:09:53.657Z,2.42
2023-03-15T11:15:03.033Z,1.70
2023-03-15T11:20:39.203Z,1.50
2023-03-15T11:25:40.970Z,1.58
2023-03-15T11:30:43.758Z,1.60
2023-03-15T11:35:49.901Z,1.70
2023-03-15T11:40:56.932Z,6.03
2023-03-15T11:46:09.010Z,2.10
2023-03-15T11:51:12.670Z,1.85
2023-03-15T11:56:44.766Z,1.85
2023-03-15T12:01:52.823Z,10.23
2023-03-15T12:06:56.944Z,2.05
2023-03-15T12:12:21.933Z,1.40
2023-03-15T12:17:29.577Z,1.20
2023-03-15T12:22:32.826Z,1.38
2023-03-15T12:27:40.106Z,1.77
2023-03-15T12:32:50.757Z,1.95
2023-03-15T12:37:53.827Z,1.20
2023-03-15T12:42:57.606Z,1.98
2023-03-15T12:47:59.849Z,1.23
2023-03-15T12:53:05.129Z,1.27
2023-03-15T12:58:12.853Z,1.40
2023-03-15T13:03:19.804Z,1.33
2023-03-15T13:08:24.706Z,1.75
2023-03-15T13:13:41.193Z,2.17
2023-03-15T13:19:05.500Z,3.53
2023-03-15T13:24:16.452Z,1.60
2023-03-15T13:29:30.809Z,1.30
2023-03-15T13:34:34.263Z,1.10
2023-03-15T13:39:36.166Z,1.13
2023-03-15T13:44:38.561Z,1.13
2023-03-15T13:49:40.921Z,1.10
2023-03-15T13:54:44.368Z,1.30
2023-03-15T13:59:53.568Z,1.48
2023-03-15T14:05:04.016Z,1.30
2023-03-15T14:10:35.338Z,1.00
2023-03-15T14:15:41.890Z,1.10
2023-03-15T14:20:47.683Z,1.73
2023-03-15T14:26:02.374Z,1.50
2023-03-15T14:31:04.395Z,1.50
2023-03-15T14:36:24.253Z,1.70
2023-03-15T14:41:31.405Z,1.90
2023-03-15T14:46:33.426Z,2.30
2023-03-15T14:51:35.458Z,1.40
2023-03-15T14:56:38.041Z,2.47
2023-03-15T15:01:42.453Z,2.30
2023-03-15T15:06:51.459Z,2.25
2023-03-15T15:11:54.548Z,2.33
2023-03-15T15:16:57.032Z,1.80
2023-03-15T15:21:59.424Z,1.88
2023-03-15T15:27:01.916Z,1.55
2023-03-15T15:32:05.357Z,1.67
2023-03-15T15:37:12.060Z,1.80
2023-03-15T15:42:14.275Z,1.83
2023-03-15T15:47:16.794Z,2.38
2023-03-15T15:52:18.841Z,1.92
2023-03-15T15:57:22.401Z,2.58
2023-03-15T16:02:25.123Z,2.47
2023-03-15T16:07:27.535Z,5.72
2023-03-15T16:12:29.783Z,2.30
2023-03-15T16:17:31.662Z,2.78
2023-03-15T16:22:34.130Z,2.38
2023-03-15T16:27:36.305Z,2.90
2023-03-15T16:32:44.472Z,3.00
2023-03-15T16:37:47.201Z,2.72
2023-03-15T16:43:15.996Z,3.40
2023-03-15T16:48:18.064Z,11.77
2023-03-15T16:53:20.124Z,2.75
2023-03-15T16:58:21.907Z,2.67
2023-03-15T17:03:23.748Z,2.95
2023-03-15T17:08:25.670Z,4.20
2023-03-15T17:13:30.164Z,4.03
2023-03-15T17:18:33.468Z,2.58
2023-03-15T17:23:36.389Z,2.80
2023-03-15T17:28:38.824Z,4.38
2023-03-15T17:33:40.764Z,4.90
2023-03-15T17:38:43.815Z,5.35
2023-03-15T17:43:46.238Z,5.40
2023-03-15T17:48:49.256Z,4.63
2023-03-15T17:53:51.502Z,9.98
2023-03-15T17:58:53.789Z,4.82
2023-03-15T18:03:56.412Z,4.90
2023-03-15T18:08:58.476Z,3.67
2023-03-15T18:14:00.950Z,4.20
2023-03-15T18:19:04.477Z,5.60
2023-03-15T18:24:06.606Z,5.43
2023-03-15T18:29:08.527Z,7.00
2023-03-15T18:34:15.251Z,15.55
2023-03-15T18:39:17.615Z,12.93
2023-03-15T18:44:19.600Z,8.68
2023-03-15T18:49:21.698Z,7.32
2023-03-15T18:54:24.301Z,7.80
2023-03-15T18:59:26.832Z,8.18
2023-03-15T19:04:28.798Z,6.78
2023-03-15T19:09:30.599Z,7.18
2023-03-15T19:14:32.887Z,10.23
2023-03-15T19:19:35.200Z,8.98
2023-03-15T19:24:39.056Z,10.07
2023-03-15T19:29:41.044Z,10.80
2023-03-15T19:34:44.435Z,9.63
2023-03-15T19:39:46.649Z,13.88
2023-03-15T19:44:48.471Z,10.20
2023-03-15T19:49:50.816Z,16.88
2023-03-15T19:54:53.088Z,19.73
2023-03-15T19:59:55.045Z,15.98
2023-03-15T20:04:56.903Z,16.98
2023-03-15T20:09:59.158Z,9.02
2023-03-15T20:15:03.210Z,9.98
2023-03-15T20:20:13.483Z,11.93
2023-03-15T20:25:17.159Z,10.10
2023-03-15T20:30:21.125Z,11.63
2023-03-15T20:35:23.140Z,11.90
2023-03-15T20:40:26.035Z,10.07
2023-03-15T20:45:28.185Z,11.68
2023-03-15T20:50:30.227Z,9.77
2023-03-15T20:55:32.094Z,20.23
2023-03-15T21:00:34.152Z,10.32
2023-03-15T21:05:36.843Z,12.07
2023-03-15T21:10:39.354Z,12.02
2023-03-15T21:15:45.993Z,12.60
2023-03-15T21:20:59.501Z,11.75
2023-03-15T21:26:05.994Z,10.88
2023-03-15T21:31:08.570Z,8.77
2023-03-15T21:36:10.924Z,14.15
2023-03-15T21:41:13.055Z,11.68
2023-03-15T21:46:15.423Z,13.35
2023-03-15T21:51:17.523Z,10.48
2023-03-15T21:56:19.503Z,13.30
2023-03-15T22:01:25.084Z,12.00
2023-03-15T22:06:26.977Z,12.65
2023-03-15T22:11:28.735Z,12.48
2023-03-15T22:16:33.704Z,8.77
2023-03-15T22:21:35.564Z,11.35
2023-03-15T22:26:37.634Z,12.32
2023-03-15T22:31:39.382Z,12.30
2023-03-15T22:36:43.173Z,10.80
2023-03-15T22:41:45.232Z,10.98
2023-03-15T22:46:47.631Z,13.32
2023-03-15T22:51:49.542Z,11.10
2023-03-15T22:56:51.480Z,10.75
2023-03-15T23:01:53.332Z,12.25
2023-03-15T23:06:56.083Z,10.32
2023-03-15T23:11:57.818Z,11.50
2023-03-15T23:16:59.796Z,10.35
2023-03-15T23:22:06.919Z,10.40
2023-03-15T23:27:09.131Z,11.77
2023-03-15T23:32:12.090Z,10.43
2023-03-15T23:37:16.931Z,8.23
2023-03-15T23:42:18.773Z,7.53
2023-03-15T23:47:22.560Z,8.68
2023-03-15T23:52:25.831Z,9.80
2023-03-15T23:57:28.073Z,6.32
